createdAt,value
2016-10-17T00:00:03.317Z,1013.24
2016-10-17T00:01:03.324Z,1013.24
2016-10-17T00:02:03.331Z,1013.21
2016-10-17T00:03:03.337Z,1013.29
2016-10-17T00:04:03.345Z,1013.29
2016-10-17T00:05:03.349Z,1013.29
2016-10-17T00:06:03.357Z,1013.26
2016-10-17T00:07:03.362Z,1013.3
2016-10-17T00:08:03.371Z,1013.29
2016-10-17T00:09:03.375Z,1013.27
2016-10-17T00:10:03.381Z,1013.27
2016-10-17T00:11:03.388Z,1013.31
2016-10-17T00:12:03.443Z,1013.31
2016-10-17T00:13:03.401Z,1013.31
2016-10-17T00:14:03.407Z,1013.32
2016-10-17T00:15:03.414Z,1013.3
2016-10-17T00:16:03.420Z,1013.3
2016-10-17T00:17:03.427Z,1013.28
2016-10-17T00:18:03.433Z,1013.31
2016-10-17T00:19:03.440Z,1013.28
2016-10-17T00:20:03.446Z,1013.3
2016-10-17T00:21:03.503Z,1013.23
2016-10-17T00:22:03.458Z,1013.26
2016-10-17T00:23:03.464Z,1013.18
2016-10-17T00:24:03.471Z,1013.25
2016-10-17T00:25:03.478Z,1013.23
2016-10-17T00:26:03.483Z,1013.23
2016-10-17T00:27:03.490Z,1013.26
2016-10-17T00:28:03.545Z,1013.25
2016-10-17T00:29:03.504Z,1013.25
2016-10-17T00:30:03.561Z,1013.25
2016-10-17T00:31:03.516Z,1013.24
2016-10-17T00:32:03.523Z,1013.25
2016-10-17T00:33:03.530Z,1013.18
2016-10-17T00:34:03.536Z,1013.16
2016-10-17T00:35:03.543Z,1013.15
2016-10-17T00:36:03.599Z,1013.12
2016-10-17T00:37:03.556Z,1013.1
2016-10-17T00:38:03.560Z,1013.13
2016-10-17T00:39:03.569Z,1013.1
2016-10-17T00:40:03.576Z,1013.09
2016-10-17T00:41:03.582Z,1013.1
2016-10-17T00:42:03.588Z,1013.11
2016-10-17T00:43:03.594Z,1013.08
2016-10-17T00:44:03.602Z,1013.07
2016-10-17T00:45:03.608Z,1013.1
2016-10-17T00:46:03.614Z,1013.09
2016-10-17T00:47:03.621Z,1013.04
2016-10-17T00:48:03.628Z,1013.08
2016-10-17T00:49:03.683Z,1013.1
2016-10-17T00:50:03.641Z,1013.11
2016-10-17T00:51:03.646Z,1013.14
2016-10-17T00:52:03.705Z,1013.13
2016-10-17T00:53:03.660Z,1013.12
2016-10-17T00:54:03.667Z,1013.15
2016-10-17T00:55:03.673Z,1013.14
2016-10-17T00:56:03.679Z,1013.12
2016-10-17T00:57:03.687Z,1013.14
2016-10-17T00:58:03.694Z,1013.17
2016-10-17T00:59:03.700Z,1013.19
2016-10-17T01:00:03.705Z,1013.18
2016-10-17T01:01:03.710Z,1013.16
2016-10-17T01:02:03.732Z,1013.18
2016-10-17T01:03:03.725Z,1013.19
2016-10-17T01:04:03.732Z,1013.18
2016-10-17T01:05:03.739Z,1013.17
2016-10-17T01:06:03.746Z,1013.16
2016-10-17T01:07:03.802Z,1013.19
2016-10-17T01:08:03.809Z,1013.15
2016-10-17T01:09:03.766Z,1013.17
2016-10-17T01:10:03.773Z,1013.15
2016-10-17T01:11:03.779Z,1013.17
2016-10-17T01:12:03.834Z,1013.14
2016-10-17T01:13:03.793Z,1013.11
2016-10-17T01:14:03.799Z,1013.11
2016-10-17T01:15:03.805Z,1013.08
2016-10-17T01:16:03.812Z,1013.07
2016-10-17T01:17:03.818Z,1013.07
2016-10-17T01:18:03.875Z,1013.08
2016-10-17T01:19:03.832Z,1013.06
2016-10-17T01:20:03.838Z,1013.06
2016-10-17T01:21:03.845Z,1013.04
2016-10-17T01:22:03.851Z,1013.07
2016-10-17T01:23:03.909Z,1013.05
2016-10-17T01:24:03.864Z,1013.07
2016-10-17T01:25:03.870Z,1013.09
2016-10-17T01:26:03.878Z,1013.11
2016-10-17T01:27:03.886Z,1013.1
2016-10-17T01:28:03.892Z,1013.15
2016-10-17T01:29:03.895Z,1013.11
2016-10-17T01:30:03.905Z,1013.1
2016-10-17T01:31:03.912Z,1013.13
2016-10-17T01:32:03.919Z,1013.09
2016-10-17T01:33:03.923Z,1013.12
2016-10-17T01:34:03.980Z,1013.09
2016-10-17T01:35:03.987Z,1013.1
2016-10-17T01:36:03.942Z,1013.07
2016-10-17T01:37:03.949Z,1013.1
2016-10-17T01:38:03.956Z,1013.1
2016-10-17T01:39:04.013Z,1013.12
2016-10-17T01:40:03.969Z,1013.08
2016-10-17T01:41:03.975Z,1013.07
2016-10-17T01:42:03.982Z,1013.04
2016-10-17T01:43:03.989Z,1013.05
2016-10-17T01:44:03.995Z,1013
2016-10-17T01:45:04.002Z,1013.03
2016-10-17T01:46:04.007Z,1013.01
2016-10-17T01:47:04.013Z,1012.95
2016-10-17T01:48:04.021Z,1012.95
2016-10-17T01:49:04.027Z,1012.96
2016-10-17T01:50:04.034Z,1012.9
2016-10-17T01:51:04.039Z,1012.93
2016-10-17T01:52:04.045Z,1012.92
2016-10-17T01:53:04.053Z,1012.92
2016-10-17T01:54:04.060Z,1012.89
2016-10-17T01:55:04.066Z,1012.93
2016-10-17T01:56:04.072Z,1012.9
2016-10-17T01:57:04.079Z,1012.94
2016-10-17T01:58:04.086Z,1012.94
2016-10-17T01:59:04.144Z,1012.97
2016-10-17T02:00:04.097Z,1012.98
2016-10-17T02:01:04.105Z,1013.05
2016-10-17T02:02:04.111Z,1013.05
2016-10-17T02:03:04.118Z,1013.07
2016-10-17T02:04:04.127Z,1013.08
2016-10-17T02:05:04.285Z,1013.1
2016-10-17T02:06:04.138Z,1013.11
2016-10-17T02:07:04.194Z,1013.14
2016-10-17T02:08:04.152Z,1013.15
2016-10-17T02:09:04.158Z,1013.2
2016-10-17T02:10:04.164Z,1013.2
2016-10-17T02:11:04.221Z,1013.19
2016-10-17T02:12:04.178Z,1013.22
2016-10-17T02:13:04.184Z,1013.23
2016-10-17T02:14:04.191Z,1013.22
2016-10-17T02:15:04.199Z,1013.23
2016-10-17T02:16:04.205Z,1013.23
2016-10-17T02:17:04.210Z,1013.23
2016-10-17T02:18:04.217Z,1013.24
2016-10-17T02:19:04.225Z,1013.23
2016-10-17T02:20:04.231Z,1013.23
2016-10-17T02:21:04.237Z,1013.31
2016-10-17T02:22:04.245Z,1013.27
2016-10-17T02:23:04.252Z,1013.26
2016-10-17T02:24:04.257Z,1013.25
2016-10-17T02:25:04.265Z,1013.23
2016-10-17T02:26:04.273Z,1013.25
2016-10-17T02:27:04.278Z,1013.2
2016-10-17T02:28:04.283Z,1013.23
2016-10-17T02:29:04.290Z,1013.23
2016-10-17T02:30:04.298Z,1013.19
2016-10-17T02:31:04.304Z,1013.19
2016-10-17T02:32:04.311Z,1013.25
2016-10-17T02:33:04.318Z,1013.28
2016-10-17T02:34:04.324Z,1013.3
2016-10-17T02:35:04.330Z,1013.33
2016-10-17T02:36:04.339Z,1013.32
2016-10-17T02:37:04.346Z,1013.35
2016-10-17T02:38:04.352Z,1013.37
2016-10-17T02:39:04.359Z,1013.37
2016-10-17T02:40:04.367Z,1013.46
2016-10-17T02:41:04.374Z,1013.5
2016-10-17T02:42:04.429Z,1013.54
2016-10-17T02:43:04.385Z,1013.53
2016-10-17T02:44:04.393Z,1013.47
2016-10-17T02:45:04.400Z,1013.47
2016-10-17T02:46:04.405Z,1013.45
2016-10-17T02:47:04.415Z,1013.48
2016-10-17T02:48:04.420Z,1013.46
2016-10-17T02:49:04.426Z,1013.49
2016-10-17T02:50:04.434Z,1013.48
2016-10-17T02:51:04.441Z,1013.46
2016-10-17T02:52:04.447Z,1013.46
2016-10-17T02:53:04.453Z,1013.44
2016-10-17T02:54:04.460Z,1013.43
2016-10-17T02:55:04.467Z,1013.39
2016-10-17T02:56:04.474Z,1013.39
2016-10-17T02:57:04.531Z,1013.36
2016-10-17T02:58:04.488Z,1013.32
2016-10-17T02:59:04.543Z,1013.29
2016-10-17T03:00:04.500Z,1013.26
2016-10-17T03:01:04.508Z,1013.29
2016-10-17T03:02:04.514Z,1013.26
2016-10-17T03:03:04.522Z,1013.25
2016-10-17T03:04:04.527Z,1013.22
2016-10-17T03:05:04.532Z,1013.17
2016-10-17T03:06:04.540Z,1013.13
2016-10-17T03:07:04.546Z,1013.11
2016-10-17T03:08:04.554Z,1013.13
2016-10-17T03:09:04.562Z,1013.21
2016-10-17T03:10:04.566Z,1013.27
2016-10-17T03:11:04.573Z,1013.33
2016-10-17T03:12:04.579Z,1013.32
2016-10-17T03:13:04.587Z,1013.28
2016-10-17T03:14:04.595Z,1013.22
2016-10-17T03:15:04.647Z,1013.17
2016-10-17T03:16:04.606Z,1013.12
2016-10-17T03:17:04.613Z,1013.18
2016-10-17T03:18:04.619Z,1013.22
2016-10-17T03:19:04.675Z,1013.24
2016-10-17T03:20:04.632Z,1013.3
2016-10-17T03:21:04.639Z,1013.29
2016-10-17T03:22:04.645Z,1013.26
2016-10-17T03:23:04.653Z,1013.24
2016-10-17T03:24:04.658Z,1013.25
2016-10-17T03:25:04.666Z,1013.27
2016-10-17T03:26:04.672Z,1013.28
2016-10-17T03:27:04.679Z,1013.23
2016-10-17T03:28:04.685Z,1013.19
2016-10-17T03:29:04.692Z,1013.16
2016-10-17T03:30:04.748Z,1013.18
2016-10-17T03:31:04.705Z,1013.2
2016-10-17T03:32:04.762Z,1013.19
2016-10-17T03:33:04.717Z,1013.26
2016-10-17T03:34:04.726Z,1013.26
2016-10-17T03:35:04.731Z,1013.27
2016-10-17T03:36:04.738Z,1013.27
2016-10-17T03:37:04.745Z,1013.18
2016-10-17T03:38:04.751Z,1013.18
2016-10-17T03:39:04.759Z,1013.16
2016-10-17T03:40:04.764Z,1013.16
2016-10-17T03:41:04.771Z,1013.18
2016-10-17T03:42:04.778Z,1013.2
2016-10-17T03:43:04.784Z,1013.18
2016-10-17T03:44:04.790Z,1013.15
2016-10-17T03:45:04.797Z,1013.14
2016-10-17T03:46:04.805Z,1013.11
2016-10-17T03:47:04.861Z,1013.12
2016-10-17T03:48:04.816Z,1013.17
2016-10-17T03:49:04.823Z,1013.13
2016-10-17T03:50:04.831Z,1013.16
2016-10-17T03:51:04.837Z,1013.19
2016-10-17T03:52:04.844Z,1013.21
2016-10-17T03:53:04.850Z,1013.19
2016-10-17T03:54:04.857Z,1013.14
2016-10-17T03:55:04.862Z,1013.16
2016-10-17T03:56:04.869Z,1013.14
2016-10-17T03:57:04.877Z,1013.1
2016-10-17T03:58:04.883Z,1013.11
2016-10-17T03:59:04.890Z,1013.07
2016-10-17T04:00:04.896Z,1013.06
2016-10-17T04:01:04.902Z,1013.05
2016-10-17T04:02:04.960Z,1013.03
2016-10-17T04:03:04.915Z,1013.03
2016-10-17T04:04:05.171Z,1013.08
2016-10-17T04:05:04.929Z,1013.04
2016-10-17T04:06:04.935Z,1013.02
2016-10-17T04:07:04.940Z,1013
2016-10-17T04:08:04.948Z,1012.97
2016-10-17T04:09:04.954Z,1012.93
2016-10-17T04:10:04.959Z,1012.96
2016-10-17T04:11:04.968Z,1013.02
2016-10-17T04:12:04.973Z,1013.02
2016-10-17T04:13:04.981Z,1013.03
2016-10-17T04:14:04.988Z,1013.03
2016-10-17T04:15:04.994Z,1013.06
2016-10-17T04:16:05.002Z,1013.03
2016-10-17T04:17:05.007Z,1012.99
2016-10-17T04:18:05.017Z,1013.01
2016-10-17T04:19:05.021Z,1013
2016-10-17T04:20:05.028Z,1012.99
2016-10-17T04:21:05.034Z,1012.96
2016-10-17T04:22:05.040Z,1012.97
2016-10-17T04:23:05.048Z,1013
2016-10-17T04:24:05.054Z,1013.06
2016-10-17T04:25:05.111Z,1013.05
2016-10-17T04:26:05.068Z,1013.04
2016-10-17T04:27:05.124Z,1013.01
2016-10-17T04:28:05.079Z,1012.97
2016-10-17T04:29:05.086Z,1013
2016-10-17T04:30:05.096Z,1013.06
2016-10-17T04:31:05.103Z,1013.04
2016-10-17T04:32:05.107Z,1013.09
2016-10-17T04:33:05.114Z,1013.06
2016-10-17T04:34:05.120Z,1013.05
2016-10-17T04:35:05.128Z,1013
2016-10-17T04:36:05.131Z,1013.01
2016-10-17T04:37:05.140Z,1012.98
2016-10-17T04:38:05.147Z,1012.98
2016-10-17T04:39:05.152Z,1012.97
2016-10-17T04:40:05.160Z,1012.99
2016-10-17T04:41:05.166Z,1012.98
2016-10-17T04:42:05.174Z,1012.99
2016-10-17T04:43:05.178Z,1013
2016-10-17T04:44:05.185Z,1012.99
2016-10-17T04:45:05.192Z,1013.01
2016-10-17T04:46:05.198Z,1013.05
2016-10-17T04:47:05.205Z,1013.03
2016-10-17T04:48:05.212Z,1013.05
2016-10-17T04:49:05.219Z,1013.04
2016-10-17T04:50:05.228Z,1013.07
2016-10-17T04:51:05.230Z,1013.08
2016-10-17T04:52:05.238Z,1013.12
2016-10-17T04:53:05.244Z,1013.14
2016-10-17T04:54:05.250Z,1013.15
2016-10-17T04:55:05.257Z,1013.14
2016-10-17T04:56:05.312Z,1013.09
2016-10-17T04:57:05.270Z,1013.12
2016-10-17T04:58:05.277Z,1013.07
2016-10-17T04:59:05.283Z,1013.07
2016-10-17T05:00:05.290Z,1013.1
2016-10-17T05:01:05.295Z,1013.14
2016-10-17T05:02:05.303Z,1013.13
2016-10-17T05:03:05.311Z,1013.21
2016-10-17T05:04:05.314Z,1013.18
2016-10-17T05:05:05.371Z,1013.26
2016-10-17T05:06:05.328Z,1013.28
2016-10-17T05:07:05.335Z,1013.25
2016-10-17T05:08:05.341Z,1013.27
2016-10-17T05:09:05.347Z,1013.24
2016-10-17T05:10:05.354Z,1013.32
2016-10-17T05:11:05.362Z,1013.29
2016-10-17T05:12:05.365Z,1013.24
2016-10-17T05:13:05.374Z,1013.23
2016-10-17T05:14:05.380Z,1013.27
2016-10-17T05:15:05.387Z,1013.23
2016-10-17T05:16:05.393Z,1013.27
2016-10-17T05:17:05.400Z,1013.23
2016-10-17T05:18:05.407Z,1013.23
2016-10-17T05:19:05.411Z,1013.2
2016-10-17T05:20:05.419Z,1013.14
2016-10-17T05:21:05.726Z,1013.19
2016-10-17T05:22:05.433Z,1013.21
2016-10-17T05:23:05.438Z,1013.26
2016-10-17T05:24:05.446Z,1013.24
2016-10-17T05:25:05.500Z,1013.25
2016-10-17T05:26:05.459Z,1013.25
2016-10-17T05:27:05.464Z,1013.28
2016-10-17T05:28:05.472Z,1013.26
2016-10-17T05:29:05.478Z,1013.26
2016-10-17T05:30:05.543Z,1013.21
2016-10-17T05:31:05.540Z,1013.24
2016-10-17T05:32:05.497Z,1013.14
2016-10-17T05:33:05.504Z,1013.14
2016-10-17T05:34:05.510Z,1013.07
2016-10-17T05:35:05.516Z,1013.06
2016-10-17T05:36:05.523Z,1012.99
2016-10-17T05:37:05.528Z,1012.99
2016-10-17T05:38:05.536Z,1013
2016-10-17T05:39:05.543Z,1012.98
2016-10-17T05:40:05.549Z,1012.97
2016-10-17T05:41:05.555Z,1012.93
2016-10-17T05:42:05.561Z,1012.9
2016-10-17T05:43:05.569Z,1012.94
2016-10-17T05:44:05.576Z,1012.91
2016-10-17T05:45:05.630Z,1012.9
2016-10-17T05:46:05.586Z,1012.87
2016-10-17T05:47:05.594Z,1012.88
2016-10-17T05:48:05.601Z,1012.89
2016-10-17T05:49:05.607Z,1012.92
2016-10-17T05:50:05.664Z,1012.96
2016-10-17T05:51:05.620Z,1012.97
2016-10-17T05:52:05.626Z,1013
2016-10-17T05:53:05.633Z,1013.05
2016-10-17T05:54:05.639Z,1013.09
2016-10-17T05:55:05.646Z,1013.06
2016-10-17T05:56:05.651Z,1013.05
2016-10-17T05:57:05.658Z,1013.06
2016-10-17T05:58:05.664Z,1013.03
2016-10-17T05:59:05.669Z,1013.06
2016-10-17T06:00:05.727Z,1013.03
2016-10-17T06:01:05.685Z,1013.07
2016-10-17T06:02:05.691Z,1013.11
2016-10-17T06:03:05.695Z,1013.12
2016-10-17T06:04:05.702Z,1013.17
2016-10-17T06:05:05.759Z,1013.21
2016-10-17T06:06:05.716Z,1013.24
2016-10-17T06:07:05.721Z,1013.27
2016-10-17T06:08:05.728Z,1013.34
2016-10-17T06:09:05.735Z,1013.34
2016-10-17T06:10:05.741Z,1013.35
2016-10-17T06:11:05.747Z,1013.32
2016-10-17T06:12:05.753Z,1013.35
2016-10-17T06:13:06.060Z,1013.35
2016-10-17T06:14:05.767Z,1013.34
2016-10-17T06:15:05.774Z,1013.4
2016-10-17T06:16:05.780Z,1013.41
2016-10-17T06:17:05.786Z,1013.47
2016-10-17T06:18:05.792Z,1013.49
2016-10-17T06:19:05.799Z,1013.48
2016-10-17T06:20:05.805Z,1013.54
2016-10-17T06:21:05.811Z,1013.53
2016-10-17T06:22:05.818Z,1013.54
2016-10-17T06:23:05.824Z,1013.52
2016-10-17T06:24:05.831Z,1013.53
2016-10-17T06:25:05.837Z,1013.53
2016-10-17T06:26:05.893Z,1013.51
2016-10-17T06:27:05.850Z,1013.52
2016-10-17T06:28:05.857Z,1013.55
2016-10-17T06:29:05.861Z,1013.54
2016-10-17T06:30:05.919Z,1013.56
2016-10-17T06:31:05.877Z,1013.6
2016-10-17T06:32:05.882Z,1013.6
2016-10-17T06:33:05.887Z,1013.57
2016-10-17T06:34:05.895Z,1013.59
2016-10-17T06:35:05.902Z,1013.58
2016-10-17T06:36:05.907Z,1013.6
2016-10-17T06:37:05.914Z,1013.6
2016-10-17T06:38:05.920Z,1013.63
2016-10-17T06:39:05.928Z,1013.61
2016-10-17T06:40:05.933Z,1013.65
2016-10-17T06:41:05.989Z,1013.64
2016-10-17T06:42:05.946Z,1013.64
2016-10-17T06:43:05.952Z,1013.64
2016-10-17T06:44:05.959Z,1013.7
2016-10-17T06:45:05.968Z,1013.68
2016-10-17T06:46:05.972Z,1013.73
2016-10-17T06:47:05.982Z,1013.73
2016-10-17T06:48:05.986Z,1013.75
2016-10-17T06:49:05.992Z,1013.79
2016-10-17T06:50:06.000Z,1013.79
2016-10-17T06:51:06.004Z,1013.82
2016-10-17T06:52:06.011Z,1013.78
2016-10-17T06:53:06.018Z,1013.84
2016-10-17T06:54:06.024Z,1013.83
2016-10-17T06:55:06.032Z,1013.82
2016-10-17T06:56:06.038Z,1013.87
2016-10-17T06:57:06.045Z,1013.85
2016-10-17T06:58:06.050Z,1013.9
2016-10-17T06:59:06.059Z,1013.86
2016-10-17T07:00:06.064Z,1013.86
2016-10-17T07:01:06.071Z,1013.89
2016-10-17T07:02:06.077Z,1013.87
2016-10-17T07:03:06.083Z,1013.92
2016-10-17T07:04:06.090Z,1013.9
2016-10-17T07:05:06.096Z,1013.93
2016-10-17T07:06:06.153Z,1013.92
2016-10-17T07:07:06.111Z,1013.93
2016-10-17T07:08:06.116Z,1013.91
2016-10-17T07:09:06.122Z,1013.95
2016-10-17T07:10:06.129Z,1013.96
2016-10-17T07:11:06.137Z,1013.98
2016-10-17T07:12:06.195Z,1014.03
2016-10-17T07:13:06.199Z,1014.03
2016-10-17T07:14:06.155Z,1014.04
2016-10-17T07:15:06.162Z,1014.01
2016-10-17T07:16:06.168Z,1013.97
2016-10-17T07:17:06.175Z,1014
2016-10-17T07:18:06.183Z,1014
2016-10-17T07:19:06.188Z,1014.08
2016-10-17T07:20:06.254Z,1014.05
2016-10-17T07:21:06.201Z,1014.1
2016-10-17T07:22:06.208Z,1014.11
2016-10-17T07:23:06.215Z,1014.12
2016-10-17T07:24:06.222Z,1014.11
2016-10-17T07:25:06.229Z,1014.16
2016-10-17T07:26:06.235Z,1014.16
2016-10-17T07:27:06.241Z,1014.16
2016-10-17T07:28:06.249Z,1014.14
2016-10-17T07:29:06.255Z,1014.18
2016-10-17T07:30:06.313Z,1014.17
2016-10-17T07:31:06.268Z,1014.14
2016-10-17T07:32:06.275Z,1014.11
2016-10-17T07:33:06.282Z,1014.12
2016-10-17T07:34:06.290Z,1014.2
2016-10-17T07:35:06.295Z,1014.2
2016-10-17T07:36:06.302Z,1014.21
2016-10-17T07:37:06.308Z,1014.22
2016-10-17T07:38:06.315Z,1014.2
2016-10-17T07:39:06.321Z,1014.27
2016-10-17T07:40:06.328Z,1014.25
2016-10-17T07:41:06.335Z,1014.28
2016-10-17T07:42:06.341Z,1014.27
2016-10-17T07:43:06.348Z,1014.3
2016-10-17T07:44:06.355Z,1014.25
2016-10-17T07:45:06.369Z,1014.29
2016-10-17T07:46:06.369Z,1014.2
2016-10-17T07:47:06.377Z,1014.28
2016-10-17T07:48:06.383Z,1014.27
2016-10-17T07:49:06.390Z,1014.32
2016-10-17T07:50:06.646Z,1014.31
2016-10-17T07:51:06.404Z,1014.34
2016-10-17T07:52:06.411Z,1014.31
2016-10-17T07:53:06.418Z,1014.27
2016-10-17T07:54:06.425Z,1014.32
2016-10-17T07:55:06.432Z,1014.41
2016-10-17T07:56:06.437Z,1014.48
2016-10-17T07:57:06.445Z,1014.66
2016-10-17T07:58:06.452Z,1014.67
2016-10-17T07:59:06.511Z,1014.67
2016-10-17T08:01:06.526Z,1014.59
2016-10-17T08:02:06.489Z,1014.54
2016-10-17T08:03:06.489Z,1014.54
2016-10-17T08:04:06.496Z,1014.56
2016-10-17T08:05:06.505Z,1014.66
2016-10-17T08:06:06.581Z,1014.7
2016-10-17T08:07:06.518Z,1014.77
2016-10-17T08:08:06.525Z,1014.88
2016-10-17T08:09:06.534Z,1014.84
2016-10-17T08:10:06.543Z,1014.81
2016-10-17T08:11:06.551Z,1014.88
2016-10-17T08:12:06.560Z,1014.88
2016-10-17T08:13:06.566Z,1014.89
2016-10-17T08:14:06.577Z,1014.81
2016-10-17T08:15:06.582Z,1014.54
2016-10-17T08:16:06.641Z,1014.87
2016-10-17T08:17:06.600Z,1014.9
2016-10-17T08:18:06.606Z,1014.92
2016-10-17T08:19:06.616Z,1014.98
2016-10-17T08:20:06.673Z,1015.04
2016-10-17T08:21:06.633Z,1015.03
2016-10-17T08:22:06.692Z,1014.88
2016-10-17T08:23:06.699Z,1014.91
2016-10-17T08:24:06.659Z,1015.04
2016-10-17T08:25:06.667Z,1015
2016-10-17T08:26:06.674Z,1015.06
2016-10-17T08:27:06.684Z,1015.05
2016-10-17T08:28:06.692Z,1015.06
2016-10-17T08:29:06.700Z,1015.03
2016-10-17T08:30:06.708Z,1015.04
2016-10-17T08:31:06.723Z,1015.03
2016-10-17T08:32:06.727Z,1014.95
2016-10-17T08:33:06.736Z,1014.99
2016-10-17T08:34:06.744Z,1014.9
2016-10-17T08:35:06.751Z,1014.75
2016-10-17T08:36:06.763Z,1014.64
2016-10-17T08:37:06.819Z,1014.64
2016-10-17T08:38:06.779Z,1014.6
2016-10-17T08:39:06.788Z,1014.59
2016-10-17T08:40:06.794Z,1014.6
2016-10-17T08:41:06.804Z,1014.61
2016-10-17T08:42:06.812Z,1014.64
2016-10-17T08:43:06.819Z,1014.74
2016-10-17T08:44:06.827Z,1014.71
2016-10-17T08:45:06.901Z,1014.81
2016-10-17T08:46:06.844Z,1014.89
2016-10-17T08:47:06.897Z,1014.87
2016-10-17T08:48:06.908Z,1014.96
2016-10-17T08:49:06.897Z,1014.91
2016-10-17T08:50:06.907Z,1014.88
2016-10-17T08:51:06.884Z,1014.83
2016-10-17T08:52:06.891Z,1014.86
2016-10-17T08:53:06.899Z,1014.86
2016-10-17T08:54:06.907Z,1014.87
2016-10-17T08:55:06.915Z,1014.84
2016-10-17T08:56:06.939Z,1014.78
2016-10-17T08:57:06.930Z,1014.79
2016-10-17T08:58:07.241Z,1014.83
2016-10-17T08:59:06.949Z,1014.84
2016-10-17T09:00:06.957Z,1014.88
2016-10-17T09:01:06.965Z,1014.87
2016-10-17T09:02:06.972Z,1014.89
2016-10-17T09:03:06.980Z,1014.88
2016-10-17T09:04:06.987Z,1014.88
2016-10-17T09:05:06.995Z,1014.9
2016-10-17T09:06:07.052Z,1014.86
2016-10-17T09:07:07.011Z,1014.92
2016-10-17T09:08:07.019Z,1014.91
2016-10-17T09:09:07.027Z,1014.89
2016-10-17T09:10:07.033Z,1014.9
2016-10-17T09:11:07.042Z,1014.97
2016-10-17T09:12:07.200Z,1014.99
2016-10-17T09:13:07.057Z,1015.01
2016-10-17T09:14:07.065Z,1014.96
2016-10-17T09:15:07.122Z,1015.01
2016-10-17T09:16:07.130Z,1014.99
2016-10-17T09:17:07.085Z,1014.95
2016-10-17T09:18:07.099Z,1014.94
2016-10-17T09:19:07.154Z,1014.93
2016-10-17T09:20:07.110Z,1014.9
2016-10-17T09:21:07.117Z,1014.9
2016-10-17T09:22:07.125Z,1014.89
2016-10-17T09:23:07.133Z,1014.85
2016-10-17T09:24:07.138Z,1014.86
2016-10-17T09:25:07.147Z,1014.91
2016-10-17T09:26:07.155Z,1014.85
2016-10-17T09:27:07.163Z,1014.84
2016-10-17T09:28:07.171Z,1014.88
2016-10-17T09:29:07.227Z,1014.92
2016-10-17T09:30:07.185Z,1014.95
2016-10-17T09:31:07.192Z,1014.97
2016-10-17T09:32:07.199Z,1014.95
2016-10-17T09:33:07.207Z,1015.05
2016-10-17T09:34:07.215Z,1015
2016-10-17T09:35:07.222Z,1014.98
2016-10-17T09:36:07.229Z,1014.98
2016-10-17T09:37:07.238Z,1014.96
2016-10-17T09:38:07.244Z,1014.98
2016-10-17T09:39:07.252Z,1014.96
2016-10-17T09:40:07.259Z,1015
2016-10-17T09:41:07.268Z,1014.96
2016-10-17T09:42:07.273Z,1014.95
2016-10-17T09:43:07.281Z,1014.92
2016-10-17T09:44:07.289Z,1014.92
2016-10-17T09:45:07.296Z,1014.89
2016-10-17T09:46:07.304Z,1014.9
2016-10-17T09:47:07.311Z,1014.92
2016-10-17T09:48:07.319Z,1014.88
2016-10-17T09:49:07.325Z,1014.89
2016-10-17T09:50:07.384Z,1014.84
2016-10-17T09:51:07.341Z,1014.81
2016-10-17T09:52:07.348Z,1014.79
2016-10-17T09:53:07.405Z,1014.76
2016-10-17T09:54:07.362Z,1014.77
2016-10-17T09:55:07.370Z,1014.75
2016-10-17T09:56:07.390Z,1014.76
2016-10-17T09:57:07.384Z,1014.76
2016-10-17T09:58:07.392Z,1014.75
2016-10-17T09:59:07.401Z,1014.75
2016-10-17T10:00:07.407Z,1014.8
2016-10-17T10:01:07.414Z,1014.81
2016-10-17T10:02:07.422Z,1014.83
2016-10-17T10:03:07.430Z,1014.84
2016-10-17T10:04:07.436Z,1014.88
2016-10-17T10:05:07.443Z,1014.88
2016-10-17T10:06:07.502Z,1014.89
2016-10-17T10:07:07.458Z,1014.85
2016-10-17T10:08:07.465Z,1014.86
2016-10-17T10:09:07.473Z,1014.93
2016-10-17T10:10:07.480Z,1014.92
2016-10-17T10:11:07.487Z,1014.9
2016-10-17T10:12:07.494Z,1014.88
2016-10-17T10:13:07.502Z,1014.89
2016-10-17T10:14:07.510Z,1014.89
2016-10-17T10:15:07.517Z,1014.87
2016-10-17T10:16:07.523Z,1014.88
2016-10-17T10:17:07.531Z,1014.92
2016-10-17T10:18:07.537Z,1014.9
2016-10-17T10:19:07.547Z,1014.86
2016-10-17T10:20:07.604Z,1014.91
2016-10-17T10:21:07.562Z,1014.93
2016-10-17T10:22:07.569Z,1015.01
2016-10-17T10:23:07.576Z,1015.05
2016-10-17T10:24:07.583Z,1015.03
2016-10-17T10:25:07.590Z,1015.05
2016-10-17T10:26:07.596Z,1015.08
2016-10-17T10:27:07.656Z,1015.1
2016-10-17T10:28:07.613Z,1015.09
2016-10-17T10:29:07.671Z,1015.01
2016-10-17T10:30:07.628Z,1015.04
2016-10-17T10:31:07.635Z,1015.1
2016-10-17T10:32:07.693Z,1015.08
2016-10-17T10:33:07.649Z,1015.07
2016-10-17T10:34:07.708Z,1015.11
2016-10-17T10:35:07.665Z,1015.09
2016-10-17T10:36:07.673Z,1015.04
2016-10-17T10:37:07.730Z,1015.01
2016-10-17T10:38:07.687Z,1015.01
2016-10-17T10:39:07.694Z,1014.96
2016-10-17T10:40:07.703Z,1015.01
2016-10-17T10:41:07.709Z,1015.02
2016-10-17T10:42:07.716Z,1015
2016-10-17T10:43:07.724Z,1014.98
2016-10-17T10:44:07.730Z,1015.02
2016-10-17T10:45:07.739Z,1015.02
2016-10-17T10:46:07.745Z,1014.94
2016-10-17T10:47:07.754Z,1014.94
2016-10-17T10:48:07.758Z,1014.95
2016-10-17T10:49:07.767Z,1014.94
2016-10-17T10:50:07.824Z,1014.89
2016-10-17T10:51:07.782Z,1014.9
2016-10-17T10:52:07.786Z,1014.91
2016-10-17T10:53:07.796Z,1014.94
2016-10-17T10:54:07.803Z,1014.95
2016-10-17T10:55:07.809Z,1014.96
2016-10-17T10:56:07.817Z,1014.99
2016-10-17T10:57:07.824Z,1015.02
2016-10-17T10:58:07.831Z,1015.02
2016-10-17T10:59:07.838Z,1014.96
2016-10-17T11:00:07.845Z,1015
2016-10-17T11:01:07.853Z,1014.98
2016-10-17T11:02:07.860Z,1015
2016-10-17T11:03:07.917Z,1015.06
2016-10-17T11:04:07.874Z,1015.11
2016-10-17T11:05:07.882Z,1015.1
2016-10-17T11:06:07.890Z,1015.07
2016-10-17T11:07:07.896Z,1015.08
2016-10-17T11:08:07.903Z,1015.04
2016-10-17T11:09:07.908Z,1015.08
2016-10-17T11:10:08.016Z,1015.07
2016-10-17T11:11:07.925Z,1015.07
2016-10-17T11:12:07.931Z,1015.1
2016-10-17T11:13:07.938Z,1015.11
2016-10-17T11:14:07.946Z,1015.1
2016-10-17T11:15:07.955Z,1015.13
2016-10-17T11:16:07.959Z,1015.19
2016-10-17T11:17:07.966Z,1015.17
2016-10-17T11:18:07.979Z,1015.2
2016-10-17T11:19:07.981Z,1015.15
2016-10-17T11:20:07.988Z,1015.18
2016-10-17T11:21:07.994Z,1015.19
2016-10-17T11:22:08.001Z,1015.21
2016-10-17T11:23:08.009Z,1015.19
2016-10-17T11:24:08.016Z,1015.23
2016-10-17T11:25:08.022Z,1015.22
2016-10-17T11:26:08.080Z,1015.24
2016-10-17T11:27:08.038Z,1015.22
2016-10-17T11:28:08.044Z,1015.21
2016-10-17T11:29:08.050Z,1015.17
2016-10-17T11:30:08.109Z,1015.19
2016-10-17T11:31:08.067Z,1015.13
2016-10-17T11:32:08.072Z,1015.14
2016-10-17T11:33:08.080Z,1015.16
2016-10-17T11:34:08.087Z,1015.19
2016-10-17T11:35:08.095Z,1015.16
2016-10-17T11:36:08.100Z,1015.15
2016-10-17T11:37:08.108Z,1015.15
2016-10-17T11:38:08.115Z,1015.15
2016-10-17T11:39:08.122Z,1015.19
2016-10-17T11:40:08.128Z,1015.17
2016-10-17T11:41:08.138Z,1015.22
2016-10-17T11:42:08.143Z,1015.19
2016-10-17T11:43:08.151Z,1015.15
2016-10-17T11:44:08.158Z,1015.18
2016-10-17T11:45:08.166Z,1015.19
2016-10-17T11:46:08.173Z,1015.2
2016-10-17T11:47:08.179Z,1015.21
2016-10-17T11:48:08.236Z,1015.23
2016-10-17T11:49:08.194Z,1015.28
2016-10-17T11:50:08.201Z,1015.27
2016-10-17T11:51:08.258Z,1015.23
2016-10-17T11:52:08.265Z,1015.2
2016-10-17T11:53:08.223Z,1015.24
2016-10-17T11:54:08.229Z,1015.21
2016-10-17T11:55:08.236Z,1015.21
2016-10-17T11:56:08.244Z,1015.23
2016-10-17T11:57:08.251Z,1015.18
2016-10-17T11:58:08.309Z,1015.2
2016-10-17T11:59:08.265Z,1015.21
2016-10-17T12:00:08.272Z,1015.2
2016-10-17T12:01:08.278Z,1015.19
2016-10-17T12:02:08.286Z,1015.19
2016-10-17T12:03:08.293Z,1015.16
2016-10-17T12:04:08.301Z,1015.2
2016-10-17T12:05:08.310Z,1015.21
2016-10-17T12:06:08.314Z,1015.23
2016-10-17T12:07:08.322Z,1015.24
2016-10-17T12:08:08.329Z,1015.28
2016-10-17T12:09:08.337Z,1015.28
2016-10-17T12:10:08.344Z,1015.28